sensor_id;sensor_type;location;lat;lon;timestamp;P1;durP1;ratioP1;P2;durP2;ratioP2
43216;SDS011;60511;42.686;23.300;2023-04-06T00:00:02;4.50;;;4.10;;
43216;SDS011;60511;42.686;23.300;2023-04-06T00:02:04;4.03;;;3.60;;
43216;SDS011;60511;42.686;23.300;2023-04-06T00:04:05;4.32;;;3.92;;
43216;SDS011;60511;42.686;23.300;2023-04-06T00:06:06;4.47;;;4.10;;
43216;SDS011;60511;42.686;23.300;2023-04-06T00:08:06;4.53;;;4.13;;
43216;SDS011;60511;42.686;23.300;2023-04-06T00:10:07;4.63;;;4.22;;
43216;SDS011;60511;42.686;23.300;2023-04-06T00:12:08;4.68;;;4.28;;
43216;SDS011;60511;42.686;23.300;2023-04-06T00:14:09;4.38;;;4.03;;
43216;SDS011;60511;42.686;23.300;2023-04-06T00:16:09;4.72;;;4.32;;
43216;SDS011;60511;42.686;23.300;2023-04-06T00:18:09;3.97;;;3.67;;
43216;SDS011;60511;42.686;23.300;2023-04-06T00:20:10;4.28;;;3.92;;
43216;SDS011;60511;42.686;23.300;2023-04-06T00:22:11;4.80;;;4.40;;
43216;SDS011;60511;42.686;23.300;2023-04-06T00:24:11;4.13;;;3.83;;
43216;SDS011;60511;42.686;23.300;2023-04-06T00:26:12;4.28;;;3.97;;
43216;SDS011;60511;42.686;23.300;2023-04-06T00:28:12;4.68;;;4.28;;
43216;SDS011;60511;42.686;23.300;2023-04-06T00:30:12;4.68;;;4.32;;
43216;SDS011;60511;42.686;23.300;2023-04-06T00:32:13;3.95;;;3.65;;
43216;SDS011;60511;42.686;23.300;2023-04-06T00:34:13;3.88;;;3.58;;
43216;SDS011;60511;42.686;23.300;2023-04-06T00:36:15;4.22;;;3.88;;
43216;SDS011;60511;42.686;23.300;2023-04-06T00:38:16;4.70;;;4.30;;
43216;SDS011;60511;42.686;23.300;2023-04-06T00:40:17;4.40;;;4.00;;
43216;SDS011;60511;42.686;23.300;2023-04-06T00:42:17;4.18;;;3.88;;
43216;SDS011;60511;42.686;23.300;2023-04-06T00:44:25;4.38;;;4.07;;
43216;SDS011;60511;42.686;23.300;2023-04-06T00:46:25;4.10;;;3.70;;
43216;SDS011;60511;42.686;23.300;2023-04-06T00:48:26;3.67;;;3.38;;
43216;SDS011;60511;42.686;23.300;2023-04-06T00:50:26;4.07;;;3.78;;
43216;SDS011;60511;42.686;23.300;2023-04-06T00:52:27;3.95;;;3.65;;
43216;SDS011;60511;42.686;23.300;2023-04-06T00:54:28;4.53;;;4.18;;
43216;SDS011;60511;42.686;23.300;2023-04-06T00:56:30;3.88;;;3.58;;
43216;SDS011;60511;42.686;23.300;2023-04-06T00:58:31;3.95;;;3.65;;
43216;SDS011;60511;42.686;23.300;2023-04-06T01:00:31;4.65;;;4.25;;
43216;SDS011;60511;42.686;23.300;2023-04-06T01:02:32;4.30;;;3.92;;
43216;SDS011;60511;42.686;23.300;2023-04-06T01:04:32;4.22;;;3.85;;
43216;SDS011;60511;42.686;23.300;2023-04-06T01:06:33;4.30;;;4.00;;
43216;SDS011;60511;42.686;23.300;2023-04-06T01:08:34;4.18;;;3.78;;
43216;SDS011;60511;42.686;23.300;2023-04-06T01:10:34;4.13;;;3.80;;
43216;SDS011;60511;42.686;23.300;2023-04-06T01:12:35;4.20;;;3.90;;
43216;SDS011;60511;42.686;23.300;2023-04-06T01:14:37;3.88;;;3.58;;
43216;SDS011;60511;42.686;23.300;2023-04-06T01:16:37;3.67;;;3.38;;
43216;SDS011;60511;42.686;23.300;2023-04-06T01:18:38;4.28;;;3.97;;
43216;SDS011;60511;42.686;23.300;2023-04-06T01:20:38;3.40;;;3.20;;
43216;SDS011;60511;42.686;23.300;2023-04-06T01:22:39;4.18;;;3.83;;
43216;SDS011;60511;42.686;23.300;2023-04-06T01:24:39;3.65;;;3.35;;
43216;SDS011;60511;42.686;23.300;2023-04-06T01:26:39;4.50;;;4.10;;
43216;SDS011;60511;42.686;23.300;2023-04-06T01:28:40;4.20;;;3.83;;
43216;SDS011;60511;42.686;23.300;2023-04-06T01:30:40;4.63;;;4.22;;
43216;SDS011;60511;42.686;23.300;2023-04-06T01:32:42;4.10;;;3.80;;
43216;SDS011;60511;42.686;23.300;2023-04-06T01:34:42;3.95;;;3.55;;
43216;SDS011;60511;42.686;23.300;2023-04-06T01:36:42;3.85;;;3.55;;
43216;SDS011;60511;42.686;23.300;2023-04-06T01:38:43;3.92;;;3.63;;
43216;SDS011;60511;42.686;23.300;2023-04-06T01:40:43;3.90;;;3.60;;
43216;SDS011;60511;42.686;23.300;2023-04-06T01:42:44;3.95;;;3.65;;
43216;SDS011;60511;42.686;23.300;2023-04-06T01:44:44;4.18;;;3.80;;
43216;SDS011;60511;42.686;23.300;2023-04-06T01:46:45;3.78;;;3.47;;
43216;SDS011;60511;42.686;23.300;2023-04-06T01:48:45;4.35;;;3.35;;
43216;SDS011;60511;42.686;23.300;2023-04-06T01:50:46;3.90;;;3.60;;
43216;SDS011;60511;42.686;23.300;2023-04-06T01:52:46;3.85;;;3.55;;
43216;SDS011;60511;42.686;23.300;2023-04-06T01:54:47;4.93;;;3.38;;
43216;SDS011;60511;42.686;23.300;2023-04-06T01:56:47;3.67;;;3.38;;
43216;SDS011;60511;42.686;23.300;2023-04-06T01:58:50;3.28;;;3.08;;
43216;SDS011;60511;42.686;23.300;2023-04-06T02:00:50;3.83;;;3.53;;
43216;SDS011;60511;42.686;23.300;2023-04-06T02:02:51;3.40;;;3.20;;
43216;SDS011;60511;42.686;23.300;2023-04-06T02:04:51;3.25;;;3.05;;
43216;SDS011;60511;42.686;23.300;2023-04-06T02:06:51;4.00;;;3.70;;
43216;SDS011;60511;42.686;23.300;2023-04-06T02:08:52;3.85;;;3.55;;
43216;SDS011;60511;42.686;23.300;2023-04-06T02:10:53;3.88;;;3.58;;
43216;SDS011;60511;42.686;23.300;2023-04-06T02:12:53;4.15;;;3.75;;
43216;SDS011;60511;42.686;23.300;2023-04-06T02:14:53;3.83;;;3.53;;
43216;SDS011;60511;42.686;23.300;2023-04-06T02:16:54;5.07;;;3.45;;
43216;SDS011;60511;42.686;23.300;2023-04-06T02:18:54;3.50;;;3.20;;
43216;SDS011;60511;42.686;23.300;2023-04-06T02:20:55;4.28;;;3.90;;
43216;SDS011;60511;42.686;23.300;2023-04-06T02:22:56;3.78;;;3.25;;
43216;SDS011;60511;42.686;23.300;2023-04-06T02:24:59;3.30;;;3.10;;
43216;SDS011;60511;42.686;23.300;2023-04-06T02:27:00;3.85;;;3.53;;
43216;SDS011;60511;42.686;23.300;2023-04-06T02:29:00;3.95;;;3.65;;
43216;SDS011;60511;42.686;23.300;2023-04-06T02:31:02;4.00;;;3.60;;
43216;SDS011;60511;42.686;23.300;2023-04-06T02:33:02;3.60;;;3.30;;
43216;SDS011;60511;42.686;23.300;2023-04-06T02:35:03;3.85;;;3.55;;
43216;SDS011;60511;42.686;23.300;2023-04-06T02:37:03;4.25;;;3.85;;
43216;SDS011;60511;42.686;23.300;2023-04-06T02:39:04;3.95;;;3.65;;
43216;SDS011;60511;42.686;23.300;2023-04-06T02:41:04;3.42;;;3.13;;
43216;SDS011;60511;42.686;23.300;2023-04-06T02:43:05;3.83;;;3.53;;
43216;SDS011;60511;42.686;23.300;2023-04-06T02:45:05;3.78;;;3.47;;
43216;SDS011;60511;42.686;23.300;2023-04-06T02:47:06;3.38;;;3.17;;
43216;SDS011;60511;42.686;23.300;2023-04-06T02:49:07;3.47;;;3.25;;
43216;SDS011;60511;42.686;23.300;2023-04-06T02:51:07;3.72;;;3.42;;
43216;SDS011;60511;42.686;23.300;2023-04-06T02:53:08;3.53;;;3.22;;
43216;SDS011;60511;42.686;23.300;2023-04-06T02:55:08;3.17;;;2.97;;
43216;SDS011;60511;42.686;23.300;2023-04-06T02:57:09;3.22;;;3.03;;
43216;SDS011;60511;42.686;23.300;2023-04-06T02:59:09;3.88;;;3.58;;
43216;SDS011;60511;42.686;23.300;2023-04-06T03:01:10;3.85;;;3.55;;
43216;SDS011;60511;42.686;23.300;2023-04-06T03:03:10;4.28;;;3.25;;
43216;SDS011;60511;42.686;23.300;2023-04-06T03:05:11;3.53;;;3.22;;
43216;SDS011;60511;42.686;23.300;2023-04-06T03:07:11;5.53;;;3.90;;
43216;SDS011;60511;42.686;23.300;2023-04-06T03:09:12;3.60;;;3.30;;
43216;SDS011;60511;42.686;23.300;2023-04-06T03:11:14;3.35;;;3.10;;
43216;SDS011;60511;42.686;23.300;2023-04-06T03:13:14;4.18;;;3.83;;
43216;SDS011;60511;42.686;23.300;2023-04-06T03:15:15;3.50;;;3.20;;
43216;SDS011;60511;42.686;23.300;2023-04-06T03:17:15;3.63;;;3.15;;
43216;SDS011;60511;42.686;23.300;2023-04-06T03:19:15;3.65;;;3.30;;
43216;SDS011;60511;42.686;23.300;2023-04-06T03:21:16;3.95;;;3.65;;
43216;SDS011;60511;42.686;23.300;2023-04-06T03:23:16;3.67;;;3.38;;
43216;SDS011;60511;42.686;23.300;2023-04-06T03:25:17;3.08;;;2.88;;
43216;SDS011;60511;42.686;23.300;2023-04-06T03:27:17;3.65;;;3.45;;
43216;SDS011;60511;42.686;23.300;2023-04-06T03:29:18;3.20;;;3.00;;
43216;SDS011;60511;42.686;23.300;2023-04-06T03:31:18;4.85;;;3.70;;
43216;SDS011;60511;42.686;23.300;2023-04-06T03:33:18;3.60;;;3.30;;
43216;SDS011;60511;42.686;23.300;2023-04-06T03:35:19;3.30;;;3.10;;
43216;SDS011;60511;42.686;23.300;2023-04-06T03:37:19;3.35;;;3.05;;
43216;SDS011;60511;42.686;23.300;2023-04-06T03:39:20;3.70;;;3.40;;
43216;SDS011;60511;42.686;23.300;2023-04-06T03:41:20;3.13;;;2.92;;
43216;SDS011;60511;42.686;23.300;2023-04-06T03:43:21;3.42;;;3.15;;
43216;SDS011;60511;42.686;23.300;2023-04-06T03:45:21;3.88;;;3.58;;
43216;SDS011;60511;42.686;23.300;2023-04-06T03:47:22;3.63;;;3.33;;
43216;SDS011;60511;42.686;23.300;2023-04-06T03:49:22;3.67;;;3.38;;
43216;SDS011;60511;42.686;23.300;2023-04-06T03:51:23;3.53;;;2.78;;
43216;SDS011;60511;42.686;23.300;2023-04-06T03:53:23;3.33;;;3.13;;
43216;SDS011;60511;42.686;23.300;2023-04-06T03:55:24;3.53;;;2.92;;
43216;SDS011;60511;42.686;23.300;2023-04-06T03:57:24;3.42;;;3.13;;
43216;SDS011;60511;42.686;23.300;2023-04-06T03:59:24;3.28;;;3.03;;
43216;SDS011;60511;42.686;23.300;2023-04-06T04:01:25;3.15;;;2.90;;
43216;SDS011;60511;42.686;23.300;2023-04-06T04:03:25;3.72;;;3.42;;
43216;SDS011;60511;42.686;23.300;2023-04-06T04:05:27;3.20;;;3.00;;
43216;SDS011;60511;42.686;23.300;2023-04-06T04:07:28;3.72;;;3.38;;
43216;SDS011;60511;42.686;23.300;2023-04-06T04:09:28;4.13;;;3.33;;
43216;SDS011;60511;42.686;23.300;2023-04-06T04:11:29;5.10;;;3.70;;
43216;SDS011;60511;42.686;23.300;2023-04-06T04:13:29;3.42;;;3.13;;
43216;SDS011;60511;42.686;23.300;2023-04-06T04:15:30;3.60;;;3.30;;
43216;SDS011;60511;42.686;23.300;2023-04-06T04:17:30;3.30;;;3.00;;
43216;SDS011;60511;42.686;23.300;2023-04-06T04:19:30;3.50;;;3.22;;
43216;SDS011;60511;42.686;23.300;2023-04-06T04:21:31;3.10;;;2.90;;
43216;SDS011;60511;42.686;23.300;2023-04-06T04:23:31;3.88;;;3.58;;
43216;SDS011;60511;42.686;23.300;2023-04-06T04:25:32;3.47;;;3.17;;
43216;SDS011;60511;42.686;23.300;2023-04-06T04:27:32;3.65;;;3.35;;
43216;SDS011;60511;42.686;23.300;2023-04-06T04:29:33;3.50;;;3.20;;
43216;SDS011;60511;42.686;23.300;2023-04-06T04:31:33;3.78;;;3.47;;
43216;SDS011;60511;42.686;23.300;2023-04-06T04:33:34;3.80;;;3.45;;
43216;SDS011;60511;42.686;23.300;2023-04-06T04:35:34;3.33;;;3.13;;
43216;SDS011;60511;42.686;23.300;2023-04-06T04:37:35;3.65;;;3.35;;
43216;SDS011;60511;42.686;23.300;2023-04-06T04:39:35;3.85;;;3.55;;
43216;SDS011;60511;42.686;23.300;2023-04-06T04:41:35;3.47;;;3.28;;
43216;SDS011;60511;42.686;23.300;2023-04-06T04:43:36;3.53;;;3.22;;
43216;SDS011;60511;42.686;23.300;2023-04-06T04:45:37;3.58;;;3.28;;
43216;SDS011;60511;42.686;23.300;2023-04-06T04:47:37;3.30;;;3.00;;
43216;SDS011;60511;42.686;23.300;2023-04-06T04:49:37;3.50;;;3.20;;
43216;SDS011;60511;42.686;23.300;2023-04-06T04:51:38;3.83;;;3.50;;
43216;SDS011;60511;42.686;23.300;2023-04-06T04:53:38;3.70;;;3.40;;
43216;SDS011;60511;42.686;23.300;2023-04-06T04:55:39;3.15;;;2.95;;
43216;SDS011;60511;42.686;23.300;2023-04-06T04:57:39;3.72;;;3.42;;
43216;SDS011;60511;42.686;23.300;2023-04-06T04:59:40;3.28;;;3.08;;
43216;SDS011;60511;42.686;23.300;2023-04-06T05:01:40;3.40;;;3.13;;
43216;SDS011;60511;42.686;23.300;2023-04-06T05:03:41;3.70;;;3.40;;
43216;SDS011;60511;42.686;23.300;2023-04-06T05:05:41;3.55;;;3.25;;
43216;SDS011;60511;42.686;23.300;2023-04-06T05:07:42;3.53;;;3.22;;
43216;SDS011;60511;42.686;23.300;2023-04-06T05:09:42;3.72;;;3.42;;
43216;SDS011;60511;42.686;23.300;2023-04-06T05:11:42;3.22;;;3.03;;
43216;SDS011;60511;42.686;23.300;2023-04-06T05:13:43;3.88;;;3.50;;
43216;SDS011;60511;42.686;23.300;2023-04-06T05:15:43;3.22;;;3.03;;
43216;SDS011;60511;42.686;23.300;2023-04-06T05:17:44;3.60;;;3.30;;
43216;SDS011;60511;42.686;23.300;2023-04-06T05:19:45;3.50;;;3.28;;
43216;SDS011;60511;42.686;23.300;2023-04-06T05:21:45;3.03;;;2.83;;
43216;SDS011;60511;42.686;23.300;2023-04-06T05:23:46;3.85;;;3.55;;
43216;SDS011;60511;42.686;23.300;2023-04-06T05:25:46;4.63;;;3.00;;
43216;SDS011;60511;42.686;23.300;2023-04-06T05:27:47;3.63;;;3.33;;
43216;SDS011;60511;42.686;23.300;2023-04-06T05:29:47;3.20;;;3.00;;
43216;SDS011;60511;42.686;23.300;2023-04-06T05:31:48;4.65;;;3.17;;
43216;SDS011;60511;42.686;23.300;2023-04-06T05:33:48;3.70;;;3.40;;
43216;SDS011;60511;42.686;23.300;2023-04-06T05:35:48;3.80;;;3.50;;
43216;SDS011;60511;42.686;23.300;2023-04-06T05:37:49;3.70;;;3.30;;
43216;SDS011;60511;42.686;23.300;2023-04-06T05:39:49;3.55;;;3.30;;
43216;SDS011;60511;42.686;23.300;2023-04-06T05:41:50;4.00;;;3.70;;
43216;SDS011;60511;42.686;23.300;2023-04-06T05:43:50;3.35;;;3.05;;
43216;SDS011;60511;42.686;23.300;2023-04-06T05:45:50;4.05;;;3.38;;
43216;SDS011;60511;42.686;23.300;2023-04-06T05:47:51;3.97;;;3.35;;
43216;SDS011;60511;42.686;23.300;2023-04-06T05:49:51;4.15;;;3.63;;
43216;SDS011;60511;42.686;23.300;2023-04-06T05:51:52;5.45;;;3.80;;
43216;SDS011;60511;42.686;23.300;2023-04-06T05:53:52;3.95;;;3.58;;
43216;SDS011;60511;42.686;23.300;2023-04-06T05:55:52;3.70;;;3.40;;
43216;SDS011;60511;42.686;23.300;2023-04-06T05:57:53;4.30;;;3.75;;
43216;SDS011;60511;42.686;23.300;2023-04-06T05:59:53;3.65;;;3.35;;
43216;SDS011;60511;42.686;23.300;2023-04-06T06:01:54;5.07;;;3.80;;
43216;SDS011;60511;42.686;23.300;2023-04-06T06:03:54;4.15;;;3.85;;
43216;SDS011;60511;42.686;23.300;2023-04-06T06:05:59;3.67;;;3.40;;
43216;SDS011;60511;42.686;23.300;2023-04-06T06:08:03;3.60;;;3.30;;
43216;SDS011;60511;42.686;23.300;2023-04-06T06:10:03;3.60;;;3.30;;
43216;SDS011;60511;42.686;23.300;2023-04-06T06:12:04;4.07;;;3.67;;
43216;SDS011;60511;42.686;23.300;2023-04-06T06:14:04;4.03;;;3.60;;
43216;SDS011;60511;42.686;23.300;2023-04-06T06:16:05;3.75;;;3.40;;
43216;SDS011;60511;42.686;23.300;2023-04-06T06:18:05;4.05;;;3.65;;
43216;SDS011;60511;42.686;23.300;2023-04-06T06:20:06;4.22;;;3.80;;
43216;SDS011;60511;42.686;23.300;2023-04-06T06:22:07;4.07;;;3.78;;
43216;SDS011;60511;42.686;23.300;2023-04-06T06:24:08;5.05;;;3.88;;
43216;SDS011;60511;42.686;23.300;2023-04-06T06:26:08;4.40;;;4.00;;
43216;SDS011;60511;42.686;23.300;2023-04-06T06:28:09;3.80;;;3.50;;
43216;SDS011;60511;42.686;23.300;2023-04-06T06:30:09;3.85;;;3.55;;
43216;SDS011;60511;42.686;23.300;2023-04-06T06:32:10;3.92;;;3.63;;
43216;SDS011;60511;42.686;23.300;2023-04-06T06:34:10;3.88;;;3.58;;
43216;SDS011;60511;42.686;23.300;2023-04-06T06:36:12;4.97;;;4.10;;
43216;SDS011;60511;42.686;23.300;2023-04-06T06:38:13;4.20;;;3.90;;
43216;SDS011;60511;42.686;23.300;2023-04-06T06:40:13;4.35;;;4.05;;
43216;SDS011;60511;42.686;23.300;2023-04-06T06:42:15;4.57;;;4.18;;
43216;SDS011;60511;42.686;23.300;2023-04-06T06:44:16;4.10;;;3.70;;
43216;SDS011;60511;42.686;23.300;2023-04-06T06:46:17;4.80;;;4.40;;
43216;SDS011;60511;42.686;23.300;2023-04-06T06:48:17;4.35;;;3.95;;
43216;SDS011;60511;42.686;23.300;2023-04-06T06:50:18;4.30;;;3.90;;
43216;SDS011;60511;42.686;23.300;2023-04-06T06:52:18;4.35;;;4.05;;
43216;SDS011;60511;42.686;23.300;2023-04-06T06:54:19;4.07;;;3.67;;
43216;SDS011;60511;42.686;23.300;2023-04-06T06:56:19;4.35;;;3.95;;
43216;SDS011;60511;42.686;23.300;2023-04-06T06:58:20;4.20;;;3.90;;
43216;SDS011;60511;42.686;23.300;2023-04-06T07:00:20;4.18;;;3.88;;
43216;SDS011;60511;42.686;23.300;2023-04-06T07:02:20;3.95;;;3.65;;
43216;SDS011;60511;42.686;23.300;2023-04-06T07:04:21;5.35;;;3.95;;
43216;SDS011;60511;42.686;23.300;2023-04-06T07:06:21;4.88;;;4.47;;
43216;SDS011;60511;42.686;23.300;2023-04-06T07:08:22;4.45;;;4.05;;
43216;SDS011;60511;42.686;23.300;2023-04-06T07:10:24;4.00;;;3.70;;
43216;SDS011;60511;42.686;23.300;2023-04-06T07:12:24;4.68;;;4.28;;
43216;SDS011;60511;42.686;23.300;2023-04-06T07:14:25;4.30;;;3.92;;
43216;SDS011;60511;42.686;23.300;2023-04-06T07:16:26;4.40;;;3.70;;
43216;SDS011;60511;42.686;23.300;2023-04-06T07:18:26;5.20;;;4.78;;
43216;SDS011;60511;42.686;23.300;2023-04-06T07:20:27;4.82;;;4.43;;
43216;SDS011;60511;42.686;23.300;2023-04-06T07:22:28;4.47;;;4.07;;
43216;SDS011;60511;42.686;23.300;2023-04-06T07:24:28;4.60;;;3.78;;
43216;SDS011;60511;42.686;23.300;2023-04-06T07:26:28;4.97;;;4.47;;
43216;SDS011;60511;42.686;23.300;2023-04-06T07:28:29;4.45;;;4.05;;
43216;SDS011;60511;42.686;23.300;2023-04-06T07:30:29;4.95;;;4.50;;
43216;SDS011;60511;42.686;23.300;2023-04-06T07:32:30;4.68;;;4.28;;
43216;SDS011;60511;42.686;23.300;2023-04-06T07:34:30;4.38;;;3.97;;
43216;SDS011;60511;42.686;23.300;2023-04-06T07:36:31;4.40;;;4.00;;
43216;SDS011;60511;42.686;23.300;2023-04-06T07:38:31;4.28;;;3.78;;
43216;SDS011;60511;42.686;23.300;2023-04-06T07:40:32;4.65;;;4.25;;
43216;SDS011;60511;42.686;23.300;2023-04-06T07:42:33;4.70;;;4.30;;
43216;SDS011;60511;42.686;23.300;2023-04-06T07:44:33;4.57;;;4.18;;
43216;SDS011;60511;42.686;23.300;2023-04-06T07:46:33;4.32;;;3.92;;
43216;SDS011;60511;42.686;23.300;2023-04-06T07:48:34;4.80;;;4.40;;
43216;SDS011;60511;42.686;23.300;2023-04-06T07:50:35;4.95;;;4.55;;
43216;SDS011;60511;42.686;23.300;2023-04-06T07:52:35;4.93;;;4.45;;
43216;SDS011;60511;42.686;23.300;2023-04-06T07:54:35;4.45;;;4.00;;
43216;SDS011;60511;42.686;23.300;2023-04-06T07:56:36;5.05;;;4.65;;
43216;SDS011;60511;42.686;23.300;2023-04-06T07:58:36;5.15;;;4.65;;
43216;SDS011;60511;42.686;23.300;2023-04-06T08:00:37;4.95;;;4.55;;
43216;SDS011;60511;42.686;23.300;2023-04-06T08:02:37;5.22;;;4.82;;
43216;SDS011;60511;42.686;23.300;2023-04-06T08:04:37;4.63;;;4.22;;
43216;SDS011;60511;42.686;23.300;2023-04-06T08:06:38;5.10;;;4.70;;
43216;SDS011;60511;42.686;23.300;2023-04-06T08:08:38;4.43;;;4.07;;
43216;SDS011;60511;42.686;23.300;2023-04-06T08:10:39;4.30;;;3.90;;
43216;SDS011;60511;42.686;23.300;2023-04-06T08:12:39;5.00;;;4.20;;
43216;SDS011;60511;42.686;23.300;2023-04-06T08:14:40;5.18;;;4.57;;
43216;SDS011;60511;42.686;23.300;2023-04-06T08:16:40;4.50;;;4.18;;
43216;SDS011;60511;42.686;23.300;2023-04-06T08:18:41;4.88;;;4.47;;
43216;SDS011;60511;42.686;23.300;2023-04-06T08:20:41;5.13;;;4.63;;
43216;SDS011;60511;42.686;23.300;2023-04-06T08:22:41;4.97;;;4.57;;
43216;SDS011;60511;42.686;23.300;2023-04-06T08:24:42;5.25;;;4.75;;
43216;SDS011;60511;42.686;23.300;2023-04-06T08:26:42;5.55;;;5.05;;
43216;SDS011;60511;42.686;23.300;2023-04-06T08:28:43;4.60;;;4.30;;
43216;SDS011;60511;42.686;23.300;2023-04-06T08:30:43;5.03;;;4.63;;
43216;SDS011;60511;42.686;23.300;2023-04-06T08:32:43;4.82;;;4.35;;
43216;SDS011;60511;42.686;23.300;2023-04-06T08:34:44;5.00;;;4.57;;
43216;SDS011;60511;42.686;23.300;2023-04-06T08:36:45;4.88;;;4.47;;
43216;SDS011;60511;42.686;23.300;2023-04-06T08:38:46;4.88;;;4.47;;
43216;SDS011;60511;42.686;23.300;2023-04-06T08:40:48;4.88;;;4.47;;
43216;SDS011;60511;42.686;23.300;2023-04-06T08:42:54;4.60;;;4.20;;
43216;SDS011;60511;42.686;23.300;2023-04-06T08:44:56;5.68;;;5.18;;
43216;SDS011;60511;42.686;23.300;2023-04-06T08:46:56;5.20;;;4.65;;
43216;SDS011;60511;42.686;23.300;2023-04-06T08:48:58;5.35;;;4.95;;
43216;SDS011;60511;42.686;23.300;2023-04-06T08:51:00;4.85;;;4.30;;
43216;SDS011;60511;42.686;23.300;2023-04-06T08:53:02;5.15;;;4.75;;
43216;SDS011;60511;42.686;23.300;2023-04-06T08:55:02;5.10;;;4.60;;
43216;SDS011;60511;42.686;23.300;2023-04-06T08:57:03;5.10;;;4.70;;
43216;SDS011;60511;42.686;23.300;2023-04-06T08:59:04;5.43;;;4.85;;
43216;SDS011;60511;42.686;23.300;2023-04-06T09:01:07;4.80;;;4.40;;
43216;SDS011;60511;42.686;23.300;2023-04-06T09:03:09;4.70;;;4.30;;
43216;SDS011;60511;42.686;23.300;2023-04-06T09:05:13;4.78;;;4.38;;
43216;SDS011;60511;42.686;23.300;2023-04-06T09:07:14;5.38;;;4.88;;
43216;SDS011;60511;42.686;23.300;2023-04-06T09:09:15;5.15;;;4.75;;
43216;SDS011;60511;42.686;23.300;2023-04-06T09:11:15;5.25;;;4.85;;
43216;SDS011;60511;42.686;23.300;2023-04-06T09:13:16;5.00;;;4.60;;
43216;SDS011;60511;42.686;23.300;2023-04-06T09:15:20;5.10;;;4.70;;
43216;SDS011;60511;42.686;23.300;2023-04-06T09:17:22;5.30;;;4.80;;
43216;SDS011;60511;42.686;23.300;2023-04-06T09:19:24;5.45;;;4.97;;
43216;SDS011;60511;42.686;23.300;2023-04-06T09:21:24;4.57;;;4.28;;
43216;SDS011;60511;42.686;23.300;2023-04-06T09:23:25;5.43;;;4.95;;
43216;SDS011;60511;42.686;23.300;2023-04-06T09:25:26;5.68;;;4.80;;
43216;SDS011;60511;42.686;23.300;2023-04-06T09:27:33;5.65;;;5.15;;
43216;SDS011;60511;42.686;23.300;2023-04-06T09:29:35;4.95;;;4.55;;
43216;SDS011;60511;42.686;23.300;2023-04-06T09:31:36;5.25;;;4.85;;
43216;SDS011;60511;42.686;23.300;2023-04-06T09:33:37;5.20;;;4.78;;
43216;SDS011;60511;42.686;23.300;2023-04-06T09:35:39;5.07;;;4.57;;
43216;SDS011;60511;42.686;23.300;2023-04-06T09:37:50;5.55;;;5.07;;
43216;SDS011;60511;42.686;23.300;2023-04-06T09:40:01;4.93;;;4.53;;
43216;SDS011;60511;42.686;23.300;2023-04-06T09:42:07;5.47;;;4.97;;
43216;SDS011;60511;42.686;23.300;2023-04-06T09:44:08;7.20;;;4.90;;
43216;SDS011;60511;42.686;23.300;2023-04-06T09:46:09;5.40;;;4.90;;
43216;SDS011;60511;42.686;23.300;2023-04-06T09:48:10;5.75;;;4.93;;
43216;SDS011;60511;42.686;23.300;2023-04-06T09:50:11;5.30;;;4.50;;
43216;SDS011;60511;42.686;23.300;2023-04-06T09:52:13;5.30;;;4.80;;
43216;SDS011;60511;42.686;23.300;2023-04-06T09:54:15;5.65;;;5.22;;
43216;SDS011;60511;42.686;23.300;2023-04-06T09:56:28;5.60;;;5.13;;
43216;SDS011;60511;42.686;23.300;2023-04-06T09:58:37;5.28;;;4.82;;
43216;SDS011;60511;42.686;23.300;2023-04-06T10:00:45;5.80;;;5.05;;
43216;SDS011;60511;42.686;23.300;2023-04-06T10:02:53;5.50;;;5.00;;
43216;SDS011;60511;42.686;23.300;2023-04-06T10:05:01;5.10;;;4.70;;
43216;SDS011;60511;42.686;23.300;2023-04-06T10:07:05;5.35;;;4.93;;
43216;SDS011;60511;42.686;23.300;2023-04-06T10:09:07;5.13;;;4.72;;
43216;SDS011;60511;42.686;23.300;2023-04-06T10:11:08;4.88;;;4.47;;
43216;SDS011;60511;42.686;23.300;2023-04-06T10:13:11;4.97;;;4.57;;
43216;SDS011;60511;42.686;23.300;2023-04-06T10:15:11;5.55;;;5.15;;
43216;SDS011;60511;42.686;23.300;2023-04-06T10:17:12;5.32;;;4.93;;
43216;SDS011;60511;42.686;23.300;2023-04-06T10:19:13;6.07;;;5.32;;
43216;SDS011;60511;42.686;23.300;2023-04-06T10:21:23;5.60;;;5.13;;
43216;SDS011;60511;42.686;23.300;2023-04-06T10:23:29;5.53;;;5.03;;
43216;SDS011;60511;42.686;23.300;2023-04-06T10:25:33;5.72;;;5.22;;
43216;SDS011;60511;42.686;23.300;2023-04-06T10:27:34;5.07;;;4.75;;
43216;SDS011;60511;42.686;23.300;2023-04-06T10:29:42;5.55;;;5.05;;
43216;SDS011;60511;42.686;23.300;2023-04-06T10:34:01;5.00;;;4.60;;
43216;SDS011;60511;42.686;23.300;2023-04-06T10:36:15;5.65;;;5.07;;
43216;SDS011;60511;42.686;23.300;2023-04-06T10:38:38;5.47;;;5.03;;
43216;SDS011;60511;42.686;23.300;2023-04-06T10:40:40;5.95;;;5.45;;
43216;SDS011;60511;42.686;23.300;2023-04-06T10:42:46;5.82;;;5.32;;
43216;SDS011;60511;42.686;23.300;2023-04-06T10:44:47;5.65;;;5.25;;
43216;SDS011;60511;42.686;23.300;2023-04-06T10:46:53;5.27;;;4.80;;
43216;SDS011;60511;42.686;23.300;2023-04-06T10:48:55;5.07;;;4.68;;
43216;SDS011;60511;42.686;23.300;2023-04-06T10:50:56;5.90;;;5.32;;
43216;SDS011;60511;42.686;23.300;2023-04-06T10:53:00;5.55;;;5.15;;
43216;SDS011;60511;42.686;23.300;2023-04-06T10:55:01;5.38;;;4.88;;
43216;SDS011;60511;42.686;23.300;2023-04-06T10:57:02;5.68;;;5.18;;
43216;SDS011;60511;42.686;23.300;2023-04-06T10:59:02;5.57;;;5.07;;
43216;SDS011;60511;42.686;23.300;2023-04-06T11:01:03;4.93;;;4.53;;
43216;SDS011;60511;42.686;23.300;2023-04-06T11:03:03;5.63;;;5.13;;
43216;SDS011;60511;42.686;23.300;2023-04-06T11:05:04;5.18;;;4.68;;
43216;SDS011;60511;42.686;23.300;2023-04-06T11:07:05;6.32;;;5.82;;
43216;SDS011;60511;42.686;23.300;2023-04-06T11:09:05;5.25;;;4.82;;
43216;SDS011;60511;42.686;23.300;2023-04-06T11:11:07;5.13;;;4.72;;
43216;SDS011;60511;42.686;23.300;2023-04-06T11:13:09;4.72;;;4.32;;
43216;SDS011;60511;42.686;23.300;2023-04-06T11:15:09;5.05;;;4.63;;
43216;SDS011;60511;42.686;23.300;2023-04-06T11:17:10;5.63;;;5.13;;
43216;SDS011;60511;42.686;23.300;2023-04-06T11:19:10;5.78;;;5.25;;
43216;SDS011;60511;42.686;23.300;2023-04-06T11:21:12;5.57;;;5.07;;
43216;SDS011;60511;42.686;23.300;2023-04-06T11:23:12;5.30;;;4.82;;
43216;SDS011;60511;42.686;23.300;2023-04-06T11:25:22;6.07;;;5.45;;
43216;SDS011;60511;42.686;23.300;2023-04-06T11:27:22;5.65;;;5.15;;
43216;SDS011;60511;42.686;23.300;2023-04-06T11:29:26;4.88;;;4.47;;
43216;SDS011;60511;42.686;23.300;2023-04-06T11:31:28;5.13;;;4.72;;
43216;SDS011;60511;42.686;23.300;2023-04-06T11:33:28;5.50;;;5.03;;
43216;SDS011;60511;42.686;23.300;2023-04-06T11:35:31;5.20;;;4.70;;
43216;SDS011;60511;42.686;23.300;2023-04-06T11:37:32;5.95;;;5.43;;
43216;SDS011;60511;42.686;23.300;2023-04-06T11:39:37;5.13;;;4.72;;
43216;SDS011;60511;42.686;23.300;2023-04-06T11:41:39;6.15;;;5.45;;
43216;SDS011;60511;42.686;23.300;2023-04-06T11:43:45;4.93;;;4.53;;
43216;SDS011;60511;42.686;23.300;2023-04-06T11:45:47;5.15;;;4.75;;
43216;SDS011;60511;42.686;23.300;2023-04-06T11:47:57;5.35;;;4.90;;
43216;SDS011;60511;42.686;23.300;2023-04-06T11:50:08;5.55;;;5.05;;
43216;SDS011;60511;42.686;23.300;2023-04-06T11:54:36;5.57;;;5.07;;
43216;SDS011;60511;42.686;23.300;2023-04-06T11:56:37;5.68;;;5.28;;
43216;SDS011;60511;42.686;23.300;2023-04-06T11:58:37;5.78;;;5.28;;
43216;SDS011;60511;42.686;23.300;2023-04-06T12:00:38;5.55;;;5.05;;
43216;SDS011;60511;42.686;23.300;2023-04-06T12:02:39;5.30;;;4.90;;